Time;durP1;ratioP1;P1;durP2;ratioP2;P2;SDS_P1;SDS_P2;PMS_P1;PMS_P2;Temp;Humidity;BMP_temperature;BMP_pressure;BME280_temperature;BME280_humidity;BME280_pressure;Samples;Min_cycle;Max_cycle;Signal;HPM_P1;HPM_P2
2023/09/21 00:01:54;;;;;;;6.03;3.20;;;;;;;;;;10335215;28;20026;-59
2023/09/21 00:06:54;;;;;;;4.75;2.65;;;;;;;;;;10335197;28;20429;-58
2023/09/21 00:11:55;;;;;;;10.98;2.75;;;;;;;;;;10346688;28;20270;-58
2023/09/21 00:16:56;;;;;;;4.35;2.42;;;;;;;;;;10334150;28;20038;-59
2023/09/21 00:21:57;;;;;;;5.40;2.28;;;;;;;;;;10334651;28;20459;-59
2023/09/21 00:27:00;;;;;;;5.95;2.95;;;;;;;;;;10347352;28;20565;-59
2023/09/21 00:32:01;;;;;;;6.68;2.42;;;;;;;;;;10335584;28;20079;-59
2023/09/21 00:37:02;;;;;;;4.45;2.53;;;;;;;;;;10356856;28;20042;-59
2023/09/21 00:42:03;;;;;;;6.50;2.35;;;;;;;;;;10361674;28;20034;-59
2023/09/21 00:47:04;;;;;;;6.50;2.72;;;;;;;;;;10369069;28;20170;-60
2023/09/21 00:52:05;;;;;;;3.63;2.60;;;;;;;;;;10347655;28;20387;-59
2023/09/21 00:57:11;;;;;;;9.75;3.53;;;;;;;;;;10345149;28;20038;-60
2023/09/21 01:02:12;;;;;;;9.68;2.92;;;;;;;;;;10352963;28;20022;-60
2023/09/21 01:07:17;;;;;;;3.72;2.20;;;;;;;;;;10356511;28;20022;-59
2023/09/21 01:12:20;;;;;;;6.70;2.83;;;;;;;;;;10361512;28;20116;-60
2023/09/21 01:17:21;;;;;;;5.00;2.60;;;;;;;;;;10337297;28;20133;-60
2023/09/21 01:22:25;;;;;;;5.63;2.70;;;;;;;;;;10338710;28;20026;-60
2023/09/21 01:27:26;;;;;;;3.95;2.33;;;;;;;;;;10349391;28;20026;-60
2023/09/21 01:32:27;;;;;;;6.78;2.50;;;;;;;;;;10336716;28;20048;-60
2023/09/21 01:37:29;;;;;;;5.30;2.45;;;;;;;;;;10354940;28;20033;-60
2023/09/21 01:42:31;;;;;;;4.55;2.47;;;;;;;;;;10345487;28;20032;-60
2023/09/21 01:47:32;;;;;;;8.68;3.00;;;;;;;;;;10331375;28;20050;-59
2023/09/21 01:52:34;;;;;;;16.02;2.92;;;;;;;;;;10331431;28;20035;-60
2023/09/21 01:57:35;;;;;;;8.88;2.65;;;;;;;;;;10355931;28;20542;-60
2023/09/21 02:02:36;;;;;;;9.77;2.50;;;;;;;;;;10342673;28;20084;-60
2023/09/21 02:07:37;;;;;;;6.53;2.33;;;;;;;;;;10331740;28;20030;-60
2023/09/21 02:12:39;;;;;;;10.00;2.67;;;;;;;;;;10352319;28;20022;-60
2023/09/21 02:17:40;;;;;;;4.20;2.40;;;;;;;;;;10333315;28;20032;-60
2023/09/21 02:22:45;;;;;;;8.02;2.10;;;;;;;;;;10334477;28;20035;-60
2023/09/21 02:27:47;;;;;;;7.43;2.65;;;;;;;;;;10339878;28;20030;-60
2023/09/21 02:32:56;;;;;;;8.57;2.60;;;;;;;;;;10340269;28;20125;-60
2023/09/21 02:37:56;;;;;;;13.20;2.35;;;;;;;;;;10353459;28;20436;-60
2023/09/21 02:42:57;;;;;;;11.77;2.53;;;;;;;;;;10354759;28;20034;-60
2023/09/21 02:48:02;;;;;;;6.05;2.40;;;;;;;;;;10339487;28;20483;-60
2023/09/21 02:53:08;;;;;;;6.60;2.50;;;;;;;;;;10363013;28;20038;-60
2023/09/21 02:58:13;;;;;;;7.15;2.53;;;;;;;;;;10327692;28;20030;-60
2023/09/21 03:03:16;;;;;;;8.40;2.47;;;;;;;;;;10340954;28;20084;-60
2023/09/21 03:08:18;;;;;;;6.57;2.60;;;;;;;;;;10327807;28;20034;-60
2023/09/21 03:13:20;;;;;;;3.00;2.10;;;;;;;;;;10327824;28;20110;-61
2023/09/21 03:18:23;;;;;;;4.20;2.47;;;;;;;;;;10344374;28;20592;-60
2023/09/21 03:23:26;;;;;;;7.65;2.30;;;;;;;;;;10339934;28;20026;-59
2023/09/21 03:28:28;;;;;;;11.30;2.60;;;;;;;;;;10364225;28;20030;-60
2023/09/21 03:33:29;;;;;;;9.05;2.42;;;;;;;;;;10341805;28;20030;-60
2023/09/21 03:38:30;;;;;;;5.53;2.33;;;;;;;;;;10361456;28;20038;-60
2023/09/21 03:43:30;;;;;;;3.15;2.30;;;;;;;;;;10363450;28;20026;-60
2023/09/21 03:48:35;;;;;;;6.45;2.42;;;;;;;;;;10363246;28;20119;-60
2023/09/21 03:53:36;;;;;;;3.72;2.22;;;;;;;;;;10355410;28;20027;-60
2023/09/21 03:58:36;;;;;;;4.00;2.10;;;;;;;;;;10346657;28;20116;-60
2023/09/21 04:03:37;;;;;;;5.47;2.03;;;;;;;;;;10339340;28;20041;-60
2023/09/21 04:08:38;;;;;;;3.90;1.80;;;;;;;;;;10345243;28;20041;-60
2023/09/21 04:13:39;;;;;;;9.10;2.08;;;;;;;;;;10339460;28;20439;-60
2023/09/21 04:18:40;;;;;;;3.72;2.45;;;;;;;;;;10332736;28;20105;-60
2023/09/21 04:23:41;;;;;;;4.63;2.15;;;;;;;;;;10352748;28;20030;-60
2023/09/21 04:28:42;;;;;;;5.28;2.67;;;;;;;;;;10349074;28;20026;-60
2023/09/21 04:33:42;;;;;;;6.95;2.22;;;;;;;;;;10334070;28;20406;-60
2023/09/21 04:38:44;;;;;;;3.60;2.13;;;;;;;;;;10356694;28;20034;-60
2023/09/21 04:43:45;;;;;;;3.92;1.83;;;;;;;;;;10370062;28;20026;-60
2023/09/21 04:48:46;;;;;;;6.75;1.80;;;;;;;;;;10368314;28;20478;-60
2023/09/21 04:53:46;;;;;;;4.13;2.00;;;;;;;;;;10356353;28;20018;-60
2023/09/21 04:58:47;;;;;;;5.97;2.38;;;;;;;;;;10360434;28;20034;-60
2023/09/21 05:03:48;;;;;;;5.13;1.83;;;;;;;;;;10345391;28;20385;-60
2023/09/21 05:08:48;;;;;;;8.52;2.40;;;;;;;;;;10332243;28;20037;-61
2023/09/21 05:13:50;;;;;;;3.50;1.83;;;;;;;;;;10332204;28;20019;-60
2023/09/21 05:18:51;;;;;;;7.25;2.55;;;;;;;;;;10347042;28;20030;-60
2023/09/21 05:23:51;;;;;;;9.55;2.55;;;;;;;;;;10336996;28;20027;-60
2023/09/21 05:28:52;;;;;;;7.07;1.90;;;;;;;;;;10343810;28;20026;-60
2023/09/21 05:33:53;;;;;;;3.83;2.15;;;;;;;;;;10352562;28;20487;-60
2023/09/21 05:38:54;;;;;;;3.53;2.15;;;;;;;;;;10351517;28;20031;-60
2023/09/21 05:43:55;;;;;;;3.92;2.17;;;;;;;;;;10363232;28;20034;-60
2023/09/21 05:48:56;;;;;;;3.80;1.92;;;;;;;;;;10342939;28;20474;-61
2023/09/21 05:53:57;;;;;;;7.47;2.03;;;;;;;;;;10339671;28;20198;-61
2023/09/21 05:59:00;;;;;;;8.27;2.08;;;;;;;;;;10343264;28;20022;-62
2023/09/21 06:04:02;;;;;;;16.92;2.40;;;;;;;;;;10331505;28;20034;-62
2023/09/21 06:09:03;;;;;;;16.58;2.33;;;;;;;;;;10336661;28;20034;-61
2023/09/21 06:14:04;;;;;;;13.82;2.53;;;;;;;;;;10331430;28;20371;-65
2023/09/21 06:19:07;;;;;;;53.90;3.92;;;;;;;;;;10350225;28;20148;-62
2023/09/21 06:24:10;;;;;;;19.27;3.55;;;;;;;;;;10344224;28;20034;-61
2023/09/21 06:29:10;;;;;;;16.55;3.20;;;;;;;;;;10341960;28;20026;-60
2023/09/21 06:34:12;;;;;;;12.25;2.50;;;;;;;;;;10343719;28;20529;-60
2023/09/21 06:39:12;;;;;;;9.75;2.60;;;;;;;;;;10351479;28;20034;-60
2023/09/21 06:44:15;;;;;;;7.65;2.20;;;;;;;;;;10341791;28;20041;-61
2023/09/21 06:49:15;;;;;;;14.38;2.65;;;;;;;;;;10352226;28;20498;-61
2023/09/21 06:54:16;;;;;;;8.43;2.25;;;;;;;;;;10353546;28;20034;-60
2023/09/21 06:59:16;;;;;;;14.07;2.92;;;;;;;;;;10353430;28;20385;-59
2023/09/21 07:04:17;;;;;;;9.75;2.42;;;;;;;;;;10352599;28;20021;-60
2023/09/21 07:09:18;;;;;;;10.63;2.10;;;;;;;;;;10339974;28;20382;-60
2023/09/21 07:14:19;;;;;;;5.15;2.17;;;;;;;;;;10340670;28;20105;-60
2023/09/21 07:19:19;;;;;;;7.55;2.20;;;;;;;;;;10339959;28;20018;-60
2023/09/21 07:24:20;;;;;;;6.22;2.45;;;;;;;;;;10361053;28;20037;-59
2023/09/21 07:29:21;;;;;;;12.27;2.72;;;;;;;;;;10350243;28;20430;-60
2023/09/21 07:34:21;;;;;;;8.23;2.30;;;;;;;;;;10348943;28;20029;-60
2023/09/21 07:39:22;;;;;;;4.38;1.88;;;;;;;;;;10362804;28;20269;-59
2023/09/21 07:44:25;;;;;;;4.75;2.13;;;;;;;;;;10363575;28;20081;-59
2023/09/21 07:49:26;;;;;;;10.40;3.00;;;;;;;;;;10361034;28;20068;-60
2023/09/21 07:54:29;;;;;;;4.90;2.00;;;;;;;;;;10352040;28;20030;-59
2023/09/21 07:59:29;;;;;;;3.67;1.98;;;;;;;;;;10369510;28;20033;-60
2023/09/21 08:04:30;;;;;;;8.77;3.03;;;;;;;;;;10358599;28;20037;-60
2023/09/21 08:09:32;;;;;;;5.75;1.83;;;;;;;;;;10347447;28;20023;-60
2023/09/21 08:14:34;;;;;;;5.15;2.47;;;;;;;;;;10370293;28;20053;-61
2023/09/21 08:19:37;;;;;;;3.85;2.20;;;;;;;;;;10357130;28;20485;-60
2023/09/21 08:24:41;;;;;;;9.23;2.00;;;;;;;;;;10358296;28;20030;-60
2023/09/21 08:29:42;;;;;;;7.47;2.00;;;;;;;;;;10361771;28;20084;-60
2023/09/21 08:34:44;;;;;;;6.65;2.20;;;;;;;;;;10334297;28;20034;-59
2023/09/21 08:39:45;;;;;;;3.88;2.00;;;;;;;;;;10357714;28;20022;-60
2023/09/21 08:44:47;;;;;;;4.85;1.75;;;;;;;;;;10349215;28;20022;-60
2023/09/21 08:49:47;;;;;;;4.78;2.30;;;;;;;;;;10357052;28;20045;-60
2023/09/21 08:54:49;;;;;;;5.68;1.80;;;;;;;;;;10369642;28;20026;-60
2023/09/21 08:59:53;;;;;;;5.88;2.10;;;;;;;;;;10357255;28;20072;-61
2023/09/21 09:04:55;;;;;;;6.32;1.90;;;;;;;;;;10354223;28;20022;-60
2023/09/21 09:09:57;;;;;;;4.20;1.83;;;;;;;;;;10362953;28;20572;-61
2023/09/21 09:15:02;;;;;;;3.67;1.55;;;;;;;;;;10343084;28;20421;-61
2023/09/21 09:20:05;;;;;;;7.70;2.10;;;;;;;;;;10347241;28;20030;-60
2023/09/21 09:25:11;;;;;;;3.90;1.80;;;;;;;;;;10355566;28;20084;-60
2023/09/21 09:30:12;;;;;;;3.45;2.03;;;;;;;;;;10358765;28;20034;-61
2023/09/21 09:35:13;;;;;;;4.70;2.45;;;;;;;;;;10353408;28;20026;-61
2023/09/21 09:40:33;;;;;;;6.60;1.90;;;;;;;;;;10366773;28;20026;-61
2023/09/21 09:51:03;;;;;;;5.45;2.45;;;;;;;;;;10228545;29;20050;-61
2023/09/21 09:56:10;;;;;;;;;;;;;;;;;;10230993;29;20069;-61
2023/09/21 10:01:12;;;;;;;4.65;1.77;;;;;;;;;;10241720;29;19922;-60
2023/09/21 10:06:14;;;;;;;1.75;1.60;;;;;;;;;;10242405;29;20039;-61
2023/09/21 10:11:16;;;;;;;5.57;1.92;;;;;;;;;;10226160;29;20027;-61
2023/09/21 10:16:19;;;;;;;4.85;1.80;;;;;;;;;;10225678;29;20131;-60
2023/09/21 10:21:23;;;;;;;3.67;1.90;;;;;;;;;;10240621;28;20414;-61
2023/09/21 10:26:25;;;;;;;6.07;1.77;;;;;;;;;;10294090;28;20045;-61
2023/09/21 10:31:27;;;;;;;4.47;1.80;;;;;;;;;;10346576;28;20473;-61
2023/09/21 10:36:29;;;;;;;4.10;1.63;;;;;;;;;;10359770;28;20042;-61
2023/09/21 10:41:32;;;;;;;3.25;2.05;;;;;;;;;;10352162;28;20026;-61
2023/09/21 10:46:37;;;;;;;2.83;1.92;;;;;;;;;;10361544;28;20402;-61
2023/09/21 10:51:40;;;;;;;2.25;1.75;;;;;;;;;;10344981;28;20389;-61
2023/09/21 10:56:44;;;;;;;2.22;1.73;;;;;;;;;;10360892;28;20034;-61
2023/09/21 11:01:44;;;;;;;11.77;1.90;;;;;;;;;;10355235;28;20100;-61
2023/09/21 11:06:46;;;;;;;2.80;1.48;;;;;;;;;;10352564;28;20095;-61
2023/09/21 11:11:47;;;;;;;3.00;1.88;;;;;;;;;;10363497;28;20026;-61
2023/09/21 11:16:48;;;;;;;3.08;1.92;;;;;;;;;;10363056;28;20483;-61
2023/09/21 11:21:49;;;;;;;2.28;1.65;;;;;;;;;;10339898;28;20032;-61
2023/09/21 11:26:54;;;;;;;5.80;2.08;;;;;;;;;;10364242;28;20478;-60
2023/09/21 11:31:55;;;;;;;2.60;1.65;;;;;;;;;;10347462;28;20041;-60
2023/09/21 11:36:56;;;;;;;2.38;1.73;;;;;;;;;;10337805;28;20045;-60
2023/09/21 11:41:57;;;;;;;3.75;1.52;;;;;;;;;;10343131;28;20037;-60
2023/09/21 11:46:58;;;;;;;3.83;1.75;;;;;;;;;;10363296;28;20056;-60
2023/09/21 11:51:59;;;;;;;12.38;1.88;;;;;;;;;;10355343;28;20417;-60
2023/09/21 11:57:04;;;;;;;3.40;1.50;;;;;;;;;;10342013;28;20034;-60
2023/09/21 12:02:09;;;;;;;2.78;1.75;;;;;;;;;;10347290;28;20461;-60
2023/09/21 12:07:10;;;;;;;3.50;1.70;;;;;;;;;;10350970;28;20037;-60
2023/09/21 12:12:14;;;;;;;3.20;1.50;;;;;;;;;;10349945;28;20533;-60
2023/09/21 12:17:19;;;;;;;4.38;1.88;;;;;;;;;;10348662;28;20036;-60
2023/09/21 12:22:19;;;;;;;2.17;1.77;;;;;;;;;;10362102;28;20121;-61
2023/09/21 12:27:20;;;;;;;2.05;1.42;;;;;;;;;;10349227;28;20033;-60
2023/09/21 12:32:21;;;;;;;1.55;1.45;;;;;;;;;;10349686;28;20084;-60
2023/09/21 12:37:22;;;;;;;3.65;1.63;;;;;;;;;;10344700;28;20213;-60
2023/09/21 12:42:23;;;;;;;4.28;2.17;;;;;;;;;;10359923;28;20181;-59
2023/09/21 12:47:25;;;;;;;2.92;1.55;;;;;;;;;;10348890;28;20034;-60
2023/09/21 12:52:26;;;;;;;3.20;1.70;;;;;;;;;;10371712;28;20041;-60
2023/09/21 12:57:30;;;;;;;2.67;1.77;;;;;;;;;;10354188;28;20030;-61
2023/09/21 13:02:31;;;;;;;4.35;1.80;;;;;;;;;;10353394;28;20063;-61
2023/09/21 13:07:32;;;;;;;2.10;1.42;;;;;;;;;;10357799;28;20482;-61
2023/09/21 13:12:32;;;;;;;8.40;1.50;;;;;;;;;;10342227;28;20045;-61
2023/09/21 13:17:34;;;;;;;2.72;1.50;;;;;;;;;;10355901;28;20076;-60
2023/09/21 13:22:34;;;;;;;5.93;1.60;;;;;;;;;;10367316;28;20030;-60
2023/09/21 13:27:35;;;;;;;3.05;1.55;;;;;;;;;;10360133;28;20036;-60
2023/09/21 13:32:36;;;;;;;2.45;1.55;;;;;;;;;;10338009;28;20030;-61
2023/09/21 13:37:36;;;;;;;3.33;1.70;;;;;;;;;;10367452;28;20080;-60
2023/09/21 13:42:40;;;;;;;2.13;1.40;;;;;;;;;;10366817;28;20053;-60
2023/09/21 13:47:41;;;;;;;1.80;1.55;;;;;;;;;;10366414;28;20069;-60
2023/09/21 13:52:43;;;;;;;9.15;1.60;;;;;;;;;;10354083;28;20029;-60
2023/09/21 13:57:44;;;;;;;2.15;1.50;;;;;;;;;;10366533;28;20037;-60
2023/09/21 14:02:46;;;;;;;4.03;1.80;;;;;;;;;;10356311;28;20030;-60
2023/09/21 14:07:47;;;;;;;2.63;1.70;;;;;;;;;;10354627;28;20061;-60
2023/09/21 14:12:49;;;;;;;2.20;1.75;;;;;;;;;;10342647;28;20109;-61
2023/09/21 14:17:50;;;;;;;4.40;1.70;;;;;;;;;;10364992;28;20038;-60
2023/09/21 14:22:50;;;;;;;4.32;1.75;;;;;;;;;;10353689;28;20026;-60
2023/09/21 14:27:51;;;;;;;5.68;1.63;;;;;;;;;;10365161;28;20030;-60
2023/09/21 14:32:54;;;;;;;2.45;1.40;;;;;;;;;;10350584;28;20567;-60
2023/09/21 14:37:54;;;;;;;4.00;1.63;;;;;;;;;;10345814;28;20032;-60
2023/09/21 14:42:55;;;;;;;4.78;1.70;;;;;;;;;;10364553;28;20030;-60
2023/09/21 14:47:56;;;;;;;3.70;1.73;;;;;;;;;;10351791;28;20045;-60
2023/09/21 14:52:56;;;;;;;4.97;1.75;;;;;;;;;;10352078;28;20101;-60
2023/09/21 14:57:57;;;;;;;2.28;1.50;;;;;;;;;;10351186;28;20038;-60
2023/09/21 15:02:58;;;;;;;2.30;1.85;;;;;;;;;;10353489;28;20026;-60
2023/09/21 15:07:59;;;;;;;3.13;1.48;;;;;;;;;;10352456;28;20512;-60
2023/09/21 15:12:59;;;;;;;4.43;1.80;;;;;;;;;;10353103;28;20031;-60
2023/09/21 15:18:00;;;;;;;5.15;1.73;;;;;;;;;;10352857;28;20251;-60
2023/09/21 15:23:01;;;;;;;4.80;1.75;;;;;;;;;;10352313;28;20061;-60
2023/09/21 15:28:01;;;;;;;4.55;1.80;;;;;;;;;;10363097;28;20421;-60
2023/09/21 15:33:02;;;;;;;1.83;1.50;;;;;;;;;;10342500;28;20030;-60
2023/09/21 15:38:03;;;;;;;5.43;1.83;;;;;;;;;;10338525;28;20026;-60
2023/09/21 15:43:04;;;;;;;2.00;1.55;;;;;;;;;;10350297;28;20034;-60
2023/09/21 15:48:05;;;;;;;5.63;1.70;;;;;;;;;;10343681;28;20155;-60
2023/09/21 15:53:06;;;;;;;4.15;1.90;;;;;;;;;;10333577;28;20030;-60
2023/09/21 15:58:06;;;;;;;6.53;1.77;;;;;;;;;;10338844;28;20395;-61
2023/09/21 16:03:07;;;;;;;2.78;1.60;;;;;;;;;;10350488;28;20513;-60
2023/09/21 16:08:08;;;;;;;4.70;2.00;;;;;;;;;;10354200;28;20072;-60
2023/09/21 16:13:09;;;;;;;2.80;1.85;;;;;;;;;;10352969;28;20030;-60
2023/09/21 16:18:10;;;;;;;3.63;1.70;;;;;;;;;;10354226;28;20034;-60
2023/09/21 16:23:11;;;;;;;5.18;1.98;;;;;;;;;;10356255;28;20034;-60
2023/09/21 16:28:11;;;;;;;6.03;1.90;;;;;;;;;;10343973;28;20030;-61
2023/09/21 16:33:12;;;;;;;7.00;1.70;;;;;;;;;;10347280;28;20064;-60
2023/09/21 16:38:13;;;;;;;5.72;2.00;;;;;;;;;;10363394;28;20030;-61
2023/09/21 16:43:14;;;;;;;24.02;2.05;;;;;;;;;;10342275;28;20037;-58
2023/09/21 16:48:16;;;;;;;2.85;1.77;;;;;;;;;;10368207;28;20049;-58
2023/09/21 16:53:16;;;;;;;6.00;1.70;;;;;;;;;;10365566;28;20053;-58
2023/09/21 16:58:17;;;;;;;3.80;1.70;;;;;;;;;;10349027;28;20087;-59
2023/09/21 17:03:17;;;;;;;3.38;1.70;;;;;;;;;;10344557;28;20477;-59
2023/09/21 17:08:19;;;;;;;3.50;2.13;;;;;;;;;;10356954;28;20072;-58
2023/09/21 17:13:20;;;;;;;3.13;1.88;;;;;;;;;;10356401;28;20662;-59
2023/09/21 17:18:21;;;;;;;3.70;1.80;;;;;;;;;;10356841;28;20034;-58
2023/09/21 17:23:21;;;;;;;2.20;1.73;;;;;;;;;;10367236;28;20030;-59
2023/09/21 17:28:22;;;;;;;6.30;1.70;;;;;;;;;;10357723;28;20037;-58
2023/09/21 17:33:23;;;;;;;5.80;1.85;;;;;;;;;;10356262;28;20025;-59
2023/09/21 17:38:23;;;;;;;4.10;1.83;;;;;;;;;;10358247;28;20042;-59
2023/09/21 17:43:24;;;;;;;3.58;1.80;;;;;;;;;;10364143;28;20018;-58
2023/09/21 17:48:25;;;;;;;6.43;1.60;;;;;;;;;;10342545;28;20460;-58
2023/09/21 17:53:28;;;;;;;3.78;1.98;;;;;;;;;;10354738;28;20445;-58
2023/09/21 17:58:29;;;;;;;5.28;2.15;;;;;;;;;;10362092;28;20029;-58
2023/09/21 18:03:29;;;;;;;5.85;2.35;;;;;;;;;;10340720;28;20025;-58
2023/09/21 18:08:30;;;;;;;5.53;2.30;;;;;;;;;;10355147;28;20026;-58
2023/09/21 18:13:33;;;;;;;7.20;2.70;;;;;;;;;;10366153;28;20022;-59
2023/09/21 18:18:37;;;;;;;6.15;2.28;;;;;;;;;;10365577;28;20030;-58
2023/09/21 18:23:38;;;;;;;7.72;2.63;;;;;;;;;;10347089;28;21591;-58
2023/09/21 18:29:00;;;;;;;8.23;3.20;;;;;;;;;;10363712;28;20049;-59
2023/09/21 18:34:01;;;;;;;6.53;2.25;;;;;;;;;;10320643;28;20066;-58
2023/09/21 18:39:01;;;;;;;7.53;2.35;;;;;;;;;;10311561;28;20149;-58
2023/09/21 18:44:03;;;;;;;11.55;2.38;;;;;;;;;;10321109;28;20046;-58
2023/09/21 18:49:04;;;;;;;4.00;2.28;;;;;;;;;;10303962;28;20038;-59
2023/09/21 18:54:06;;;;;;;6.97;2.22;;;;;;;;;;10319725;28;20026;-58
2023/09/21 18:59:06;;;;;;;5.82;2.28;;;;;;;;;;10317984;28;20050;-58
2023/09/21 19:04:07;;;;;;;4.93;2.03;;;;;;;;;;10318893;28;20129;-59
2023/09/21 19:09:09;;;;;;;6.65;2.40;;;;;;;;;;10331936;28;20034;-59
2023/09/21 19:14:11;;;;;;;8.27;2.40;;;;;;;;;;10362589;28;20022;-58
2023/09/21 19:19:12;;;;;;;6.80;2.47;;;;;;;;;;10342321;28;20148;-58
2023/09/21 19:24:13;;;;;;;5.05;2.40;;;;;;;;;;10335285;28;20042;-58
2023/09/21 19:29:13;;;;;;;7.03;2.72;;;;;;;;;;10345601;28;20473;-58
2023/09/21 19:34:14;;;;;;;6.67;2.40;;;;;;;;;;10340549;28;20654;-59
2023/09/21 19:39:16;;;;;;;3.40;2.08;;;;;;;;;;10332537;28;20774;-58
2023/09/21 19:44:16;;;;;;;7.90;2.33;;;;;;;;;;10332290;28;20037;-58
2023/09/21 19:49:17;;;;;;;5.97;2.65;;;;;;;;;;10336525;28;20044;-58
2023/09/21 19:54:18;;;;;;;7.63;2.38;;;;;;;;;;10347527;28;20018;-58
2023/09/21 19:59:18;;;;;;;4.07;2.03;;;;;;;;;;10342712;28;20394;-58
2023/09/21 20:04:19;;;;;;;6.13;2.80;;;;;;;;;;10346954;28;20367;-58
2023/09/21 20:09:20;;;;;;;10.85;2.80;;;;;;;;;;10343126;28;20109;-58
2023/09/21 20:14:21;;;;;;;5.57;1.93;;;;;;;;;;10341483;28;20041;-58
2023/09/21 20:19:21;;;;;;;12.27;2.45;;;;;;;;;;10349321;28;20040;-58
2023/09/21 20:24:22;;;;;;;10.18;2.22;;;;;;;;;;10365023;28;20029;-59
2023/09/21 20:29:23;;;;;;;7.05;2.42;;;;;;;;;;10357178;28;20113;-58
2023/09/21 20:34:23;;;;;;;9.80;2.70;;;;;;;;;;10345716;28;20034;-58
2023/09/21 20:39:24;;;;;;;8.23;2.85;;;;;;;;;;10369283;28;20064;-59
2023/09/21 20:44:25;;;;;;;7.95;2.67;;;;;;;;;;10345733;28;20046;-58
2023/09/21 20:49:27;;;;;;;9.40;2.78;;;;;;;;;;10341070;28;20050;-58
2023/09/21 20:54:28;;;;;;;8.30;2.47;;;;;;;;;;10353215;28;20045;-58
2023/09/21 20:59:28;;;;;;;4.22;2.28;;;;;;;;;;10352761;28;20367;-58
2023/09/21 21:04:29;;;;;;;7.28;2.80;;;;;;;;;;10332670;28;20038;-59
2023/09/21 21:09:30;;;;;;;7.00;2.55;;;;;;;;;;10354891;28;20026;-58
2023/09/21 21:14:31;;;;;;;6.05;2.67;;;;;;;;;;10366148;28;20034;-59
2023/09/21 21:19:32;;;;;;;9.80;2.67;;;;;;;;;;10350889;28;20030;-58
2023/09/21 21:24:32;;;;;;;8.93;3.17;;;;;;;;;;10351432;28;20045;-59
2023/09/21 21:29:33;;;;;;;4.45;2.35;;;;;;;;;;10335376;28;20124;-58
2023/09/21 21:34:34;;;;;;;7.47;2.50;;;;;;;;;;10354770;28;20460;-57
2023/09/21 21:39:36;;;;;;;5.80;2.15;;;;;;;;;;10364340;28;20030;-58
2023/09/21 21:44:36;;;;;;;5.35;2.45;;;;;;;;;;10352013;28;20385;-58
2023/09/21 21:49:37;;;;;;;7.80;2.90;;;;;;;;;;10320219;28;1171068;-62
2023/09/21 21:54:38;;;;;;;17.23;2.60;;;;;;;;;;10367473;28;20467;-61
2023/09/21 21:59:39;;;;;;;8.18;3.00;;;;;;;;;;10368382;28;20053;-62
2023/09/21 22:04:40;;;;;;;7.70;2.60;;;;;;;;;;10348459;28;20143;-61
2023/09/21 22:09:41;;;;;;;10.48;2.55;;;;;;;;;;10354006;28;20033;-61
2023/09/21 22:14:41;;;;;;;15.32;3.28;;;;;;;;;;10350299;28;20026;-60
2023/09/21 22:19:42;;;;;;;16.50;3.00;;;;;;;;;;10351814;28;20065;-61
2023/09/21 22:24:43;;;;;;;8.07;2.80;;;;;;;;;;10343190;28;20041;-61
2023/09/21 22:29:43;;;;;;;9.00;2.78;;;;;;;;;;10360815;28;20092;-61
2023/09/21 22:34:44;;;;;;;8.77;2.92;;;;;;;;;;10360152;28;20102;-61
2023/09/21 22:39:44;;;;;;;7.13;2.78;;;;;;;;;;10358873;28;20109;-61
2023/09/21 22:44:46;;;;;;;14.27;2.72;;;;;;;;;;10346239;28;20173;-61
2023/09/21 22:49:46;;;;;;;7.55;3.03;;;;;;;;;;10337215;28;20070;-61
2023/09/21 22:54:47;;;;;;;17.90;3.20;;;;;;;;;;10341754;28;20090;-61
2023/09/21 22:59:49;;;;;;;10.55;3.00;;;;;;;;;;10353508;28;20022;-61
2023/09/21 23:04:50;;;;;;;10.45;3.10;;;;;;;;;;10342789;28;20033;-61
2023/09/21 23:09:51;;;;;;;9.30;2.90;;;;;;;;;;10338933;28;20421;-61
2023/09/21 23:14:51;;;;;;;13.48;3.53;;;;;;;;;;10340781;28;20026;-60
2023/09/21 23:19:53;;;;;;;8.77;3.28;;;;;;;;;;10363441;28;20034;-61
2023/09/21 23:24:54;;;;;;;3.70;2.58;;;;;;;;;;10340581;28;20029;-61
2023/09/21 23:29:54;;;;;;;5.45;2.35;;;;;;;;;;10332117;28;20026;-61
2023/09/21 23:34:56;;;;;;;9.23;3.53;;;;;;;;;;10351485;28;20022;-60
2023/09/21 23:39:56;;;;;;;7.13;2.70;;;;;;;;;;10358618;28;20038;-60
2023/09/21 23:44:57;;;;;;;4.60;2.38;;;;;;;;;;10362432;28;20025;-61
2023/09/21 23:49:58;;;;;;;5.60;2.63;;;;;;;;;;10333308;28;20030;-60
2023/09/21 23:54:59;;;;;;;11.50;2.90;;;;;;;;;;10339837;28;20475;-60
